Time;durP1;ratioP1;P1;durP2;ratioP2;P2;SDS_P1;SDS_P2;PMS_P1;PMS_P2;Temp;Humidity;BMP_temperature;BMP_pressure;BME280_temperature;BME280_humidity;BME280_pressure;Samples;Min_cycle;Max_cycle;Signal;HPM_P1;HPM_P2
2021/04/02 00:01:49;;;;;;;7.50;5.80;;;21.30;49.90;;;;;;5122660;28;20456;-39
2021/04/02 00:04:19;;;;;;;5.97;5.47;;;21.20;48.70;;;;;;5120364;28;20454;-40
2021/04/02 00:06:49;;;;;;;8.40;6.10;;;21.10;51.20;;;;;;5121938;28;20793;-39
2021/04/02 00:09:19;;;;;;;8.20;6.30;;;21.20;50.60;;;;;;5123183;28;20425;-41
2021/04/02 00:11:49;;;;;;;10.13;6.10;;;21.30;49.90;;;;;;5121715;28;20490;-40
2021/04/02 00:14:20;;;;;;;6.87;5.30;;;21.20;51.10;;;;;;5118779;28;20429;-42
2021/04/02 00:16:50;;;;;;;8.90;5.60;;;21.20;51.30;;;;;;5119867;28;20420;-41
2021/04/02 00:19:20;;;;;;;5.80;5.30;;;21.20;50.60;;;;;;5120882;28;20444;-41
2021/04/02 00:21:51;;;;;;;5.67;5.17;;;21.20;50.80;;;;;;5122531;28;20457;-40
2021/04/02 00:24:21;;;;;;;6.90;5.60;;;21.20;51.30;;;;;;5121691;28;20542;-40
2021/04/02 00:26:51;;;;;;;6.13;5.13;;;21.20;50.10;;;;;;5122527;28;20460;-40
2021/04/02 00:29:22;;;;;;;8.77;5.10;;;21.10;49.30;;;;;;5117224;28;20760;-40
2021/04/02 00:31:52;;;;;;;7.50;5.60;;;21.10;50.50;;;;;;5122440;28;20494;-38
2021/04/02 00:34:22;;;;;;;6.00;4.73;;;21.10;52.70;;;;;;5123796;28;20562;-39
2021/04/02 00:36:52;;;;;;;7.03;5.73;;;21.10;52.30;;;;;;5122447;28;20490;-39
2021/04/02 00:39:22;;;;;;;6.43;5.57;;;21.10;52.00;;;;;;5122496;28;20488;-41
2021/04/02 00:41:52;;;;;;;5.57;5.03;;;21.10;50.90;;;;;;5121732;28;20474;-39
2021/04/02 00:44:23;;;;;;;6.30;5.70;;;21.00;52.70;;;;;;5122513;28;20491;-40
2021/04/02 00:46:53;;;;;;;7.00;4.87;;;20.90;52.30;;;;;;5122569;28;20466;-40
2021/04/02 00:49:24;;;;;;;10.77;5.70;;;20.90;51.40;;;;;;5124258;28;20422;-41
2021/04/02 00:51:54;;;;;;;5.33;4.83;;;20.70;52.60;;;;;;5126574;28;20487;-39
2021/04/02 00:54:24;;;;;;;6.03;5.43;;;20.50;54.50;;;;;;5126348;28;20905;-41
2021/04/02 00:56:54;;;;;;;6.37;5.70;;;20.30;57.20;;;;;;5125463;28;20580;-38
2021/04/02 00:59:25;;;;;;;5.80;5.27;;;20.20;57.80;;;;;;5126211;28;20954;-41
2021/04/02 01:01:55;;;;;;;5.57;5.03;;;20.30;58.70;;;;;;5124224;28;20441;-38
2021/04/02 01:04:25;;;;;;;5.90;4.53;;;20.10;60.10;;;;;;5125483;28;20507;-41
2021/04/02 01:06:57;;;;;;;10.10;6.13;;;20.00;60.30;;;;;;5126195;28;20460;-41
2021/04/02 01:09:27;;;;;;;6.77;5.20;;;19.90;60.50;;;;;;5126530;28;20513;-39
2021/04/02 01:11:57;;;;;;;9.97;5.20;;;19.70;60.60;;;;;;5125763;28;20483;-40
2021/04/02 01:14:28;;;;;;;11.23;5.37;;;19.50;62.60;;;;;;5126012;28;20482;-40
2021/04/02 01:16:59;;;;;;;5.17;4.37;;;19.50;61.40;;;;;;5126694;28;20825;-42
2021/04/02 01:19:33;;;;;;;8.80;6.20;;;19.20;63.90;;;;;;5125938;28;20457;-40
2021/04/02 01:22:06;;;;;;;7.60;4.70;;;19.00;63.00;;;;;;5125769;28;20515;-41
2021/04/02 01:24:55;;;;;;;5.10;4.40;;;18.70;63.60;;;;;;5125943;28;20489;-40
2021/04/02 01:27:33;;;;;;;4.83;4.40;;;18.50;64.20;;;;;;5119877;28;20502;-41
2021/04/02 01:30:08;;;;;;;5.40;3.80;;;18.40;64.90;;;;;;5126557;28;20457;-41
2021/04/02 01:32:42;;;;;;;8.47;4.57;;;18.30;66.30;;;;;;5125337;28;20751;-41
2021/04/02 01:35:16;;;;;;;3.83;3.37;;;18.20;65.80;;;;;;5123755;28;20990;-41
2021/04/02 01:37:50;;;;;;;6.13;4.40;;;18.10;65.60;;;;;;5126471;28;20457;-41
2021/04/02 01:40:22;;;;;;;6.60;6.00;;;18.00;68.50;;;;;;5125935;28;20450;-41
2021/04/02 01:42:54;;;;;;;7.43;6.07;;;18.00;68.20;;;;;;5125364;28;20455;-41
2021/04/02 01:45:26;;;;;;;7.40;6.70;;;17.90;68.40;;;;;;5126104;28;20587;-40
2021/04/02 01:47:58;;;;;;;7.47;6.10;;;17.90;67.40;;;;;;5123744;28;20445;-38
2021/04/02 01:50:28;;;;;;;8.13;6.03;;;17.80;70.10;;;;;;5122495;28;20422;-40
2021/04/02 01:53:00;;;;;;;5.73;4.57;;;17.80;69.10;;;;;;5125621;28;20465;-39
2021/04/02 01:55:30;;;;;;;6.60;4.43;;;17.70;69.00;;;;;;5126297;28;20458;-40
2021/04/02 01:58:01;;;;;;;6.40;4.47;;;17.60;67.90;;;;;;5124902;28;20487;-39
2021/04/02 02:00:36;;;;;;;7.00;4.00;;;17.50;68.40;;;;;;5124698;28;20903;-42
2021/04/02 02:03:07;;;;;;;6.77;3.57;;;17.30;69.10;;;;;;5124280;28;20468;-41
2021/04/02 02:05:37;;;;;;;4.60;3.40;;;17.20;69.50;;;;;;5126588;28;20326;-41
2021/04/02 02:08:08;;;;;;;5.80;4.67;;;17.10;69.80;;;;;;5125458;28;20534;-42
2021/04/02 02:10:39;;;;;;;6.60;5.00;;;16.90;69.70;;;;;;5125336;28;20511;-41
2021/04/02 02:13:09;;;;;;;8.00;5.60;;;16.60;70.60;;;;;;5125441;28;20426;-42
2021/04/02 02:15:42;;;;;;;6.60;3.97;;;16.40;69.80;;;;;;5125434;28;20452;-43
2021/04/02 02:18:14;;;;;;;4.37;3.47;;;16.10;70.80;;;;;;5125658;27;20448;-43
2021/04/02 02:20:47;;;;;;;4.30;3.00;;;15.90;70.10;;;;;;5125862;28;20447;-41
2021/04/02 02:23:17;;;;;;;4.17;3.20;;;15.70;71.40;;;;;;5125219;28;20450;-42
2021/04/02 02:25:47;;;;;;;3.80;3.40;;;15.60;72.50;;;;;;5125915;28;20446;-41
2021/04/02 02:28:18;;;;;;;8.07;3.37;;;15.50;71.60;;;;;;5124803;28;20554;-42
2021/04/02 02:30:49;;;;;;;10.63;3.43;;;15.30;72.70;;;;;;5124570;28;20917;-42
2021/04/02 02:33:20;;;;;;;13.10;3.80;;;15.10;72.90;;;;;;5125005;28;20435;-41
2021/04/02 02:35:50;;;;;;;5.90;3.27;;;15.00;74.50;;;;;;5117565;28;20931;-45
2021/04/02 02:38:21;;;;;;;6.40;3.60;;;15.00;74.10;;;;;;5125525;27;20450;-41
2021/04/02 02:40:51;;;;;;;5.43;3.13;;;14.90;75.30;;;;;;5121910;28;20480;-42
2021/04/02 02:43:22;;;;;;;4.27;2.90;;;14.90;76.00;;;;;;5123949;28;20561;-42
2021/04/02 02:45:54;;;;;;;4.73;2.97;;;14.80;76.70;;;;;;5125703;28;20438;-43
2021/04/02 02:48:24;;;;;;;6.73;3.23;;;14.70;77.40;;;;;;5125642;28;20830;-42
2021/04/02 02:50:57;;;;;;;6.60;3.33;;;14.60;77.40;;;;;;5123600;28;20476;-41
2021/04/02 02:53:31;;;;;;;5.30;3.30;;;14.50;77.10;;;;;;5123912;28;20460;-42
2021/04/02 02:56:03;;;;;;;3.93;3.53;;;14.40;78.90;;;;;;5125019;28;20484;-44
2021/04/02 02:58:34;;;;;;;5.00;3.77;;;14.40;77.80;;;;;;5124130;28;20441;-42
2021/04/02 03:01:06;;;;;;;6.57;3.40;;;14.40;79.30;;;;;;5123193;28;20453;-41
2021/04/02 03:03:37;;;;;;;5.03;3.60;;;14.30;80.40;;;;;;5124528;28;20518;-41
2021/04/02 03:06:09;;;;;;;5.10;3.30;;;14.20;80.60;;;;;;5124318;28;20478;-41
2021/04/02 03:08:46;;;;;;;7.00;3.40;;;14.20;80.50;;;;;;5124227;28;20820;-41
2021/04/02 03:11:18;;;;;;;5.07;3.00;;;14.10;81.00;;;;;;5121381;28;20542;-41
2021/04/02 03:13:51;;;;;;;7.17;4.10;;;14.00;82.20;;;;;;5122581;28;20468;-41
2021/04/02 03:16:24;;;;;;;6.57;4.00;;;14.00;82.20;;;;;;5113997;28;20449;-42
2021/04/02 03:18:56;;;;;;;4.30;3.53;;;13.90;82.80;;;;;;5124663;28;20543;-41
2021/04/02 03:21:27;;;;;;;5.07;3.83;;;13.90;83.80;;;;;;5123503;28;20475;-42
2021/04/02 03:23:58;;;;;;;3.60;2.90;;;13.80;84.00;;;;;;5124405;28;20481;-41
2021/04/02 03:26:29;;;;;;;7.93;3.00;;;13.70;84.50;;;;;;5123253;28;20450;-41
2021/04/02 03:29:00;;;;;;;5.93;3.93;;;13.70;85.50;;;;;;5123012;28;20457;-41
2021/04/02 03:31:35;;;;;;;5.40;3.47;;;13.60;86.10;;;;;;5123673;28;20533;-42
2021/04/02 03:34:10;;;;;;;3.57;3.27;;;13.50;87.70;;;;;;5123668;28;20446;-41
2021/04/02 03:36:41;;;;;;;5.50;3.83;;;13.50;88.70;;;;;;5123088;28;20449;-42
2021/04/02 03:39:14;;;;;;;3.90;3.40;;;13.40;90.10;;;;;;5124433;28;20461;-42
2021/04/02 03:41:45;;;;;;;5.00;3.40;;;13.40;89.50;;;;;;5122288;28;20525;-43
2021/04/02 03:44:17;;;;;;;5.80;3.27;;;13.30;89.90;;;;;;5124089;28;20845;-42
2021/04/02 03:46:50;;;;;;;6.27;4.13;;;13.30;90.30;;;;;;5123330;28;20487;-41
2021/04/02 03:49:24;;;;;;;8.40;4.50;;;13.20;90.50;;;;;;5123316;28;20448;-43
2021/04/02 03:51:59;;;;;;;6.30;3.73;;;13.10;91.20;;;;;;5122614;28;20513;-43
2021/04/02 03:54:31;;;;;;;7.87;4.80;;;13.10;91.50;;;;;;5123349;28;20514;-41
2021/04/02 03:57:03;;;;;;;10.80;4.10;;;13.10;91.50;;;;;;5122601;28;20442;-42
2021/04/02 03:59:36;;;;;;;5.50;4.10;;;13.10;91.50;;;;;;5123958;28;20515;-42
2021/04/02 04:02:10;;;;;;;4.10;3.40;;;13.10;92.00;;;;;;5123276;28;20471;-41
2021/04/02 04:04:40;;;;;;;9.10;3.83;;;13.00;91.60;;;;;;5123496;28;20481;-41
2021/04/02 04:07:10;;;;;;;4.87;3.70;;;13.00;91.50;;;;;;5122121;28;20825;-41
2021/04/02 04:09:42;;;;;;;4.33;3.93;;;13.00;92.20;;;;;;5110538;28;20556;-41
2021/04/02 04:12:15;;;;;;;7.13;5.07;;;13.00;91.60;;;;;;5121813;28;20584;-41
2021/04/02 04:14:47;;;;;;;7.57;4.10;;;12.90;92.50;;;;;;5122666;28;20457;-41
2021/04/02 04:17:20;;;;;;;7.10;4.07;;;12.90;92.70;;;;;;5120428;28;20995;-41
2021/04/02 04:19:51;;;;;;;8.13;4.60;;;12.90;92.60;;;;;;5123136;28;20480;-41
2021/04/02 04:22:25;;;;;;;5.77;3.87;;;12.90;92.80;;;;;;5122235;28;20452;-41
2021/04/02 04:24:56;;;;;;;4.43;3.90;;;12.90;92.60;;;;;;5121967;28;20489;-41
2021/04/02 04:27:28;;;;;;;7.00;3.30;;;12.90;93.00;;;;;;5120520;28;20468;-41
2021/04/02 04:29:59;;;;;;;7.63;4.23;;;12.80;93.00;;;;;;5122467;28;20478;-41
2021/04/02 04:32:31;;;;;;;6.43;3.20;;;12.80;93.00;;;;;;5122181;28;20513;-41
2021/04/02 04:35:03;;;;;;;4.57;3.80;;;12.80;93.50;;;;;;5123386;28;20448;-42
2021/04/02 04:37:33;;;;;;;4.93;3.80;;;12.70;93.40;;;;;;5122705;28;20517;-42
2021/04/02 04:40:05;;;;;;;8.80;5.80;;;12.70;93.10;;;;;;5122776;28;20579;-41
2021/04/02 04:45:27;;;;;;;9.00;3.90;;;12.60;90.80;;;;;;5121880;28;20509;-41
2021/04/02 04:47:59;;;;;;;7.67;4.10;;;12.50;90.80;;;;;;5120768;28;20444;-42
2021/04/02 04:50:29;;;;;;;9.40;4.37;;;12.40;90.00;;;;;;5122863;28;20936;-42
2021/04/02 04:53:04;;;;;;;11.10;4.60;;;12.40;90.50;;;;;;5122600;28;20781;-40
2021/04/02 04:55:37;;;;;;;7.10;3.90;;;12.40;90.40;;;;;;5123248;28;20537;-40
2021/04/02 04:58:11;;;;;;;10.20;4.23;;;12.30;90.10;;;;;;5121796;28;20834;-39
2021/04/02 05:00:45;;;;;;;8.17;3.77;;;12.30;88.60;;;;;;5121680;28;20506;-43
2021/04/02 05:03:20;;;;;;;9.13;4.13;;;12.30;89.20;;;;;;5121301;28;20509;-41
2021/04/02 05:05:54;;;;;;;7.27;3.63;;;12.20;87.80;;;;;;5122381;28;20491;-41
2021/04/02 05:08:28;;;;;;;11.47;4.57;;;12.20;88.10;;;;;;5123539;28;20441;-41
2021/04/02 05:11:00;;;;;;;5.77;4.20;;;12.20;88.30;;;;;;5123354;28;20515;-41
2021/04/02 05:13:33;;;;;;;8.00;5.20;;;12.10;90.00;;;;;;5120158;28;20464;-40
2021/04/02 05:16:05;;;;;;;7.80;4.67;;;12.10;89.60;;;;;;5121894;28;20461;-41
2021/04/02 05:18:37;;;;;;;8.03;4.20;;;12.00;90.20;;;;;;5122191;28;20444;-41
2021/04/02 05:21:08;;;;;;;9.85;5.05;;;12.00;88.80;;;;;;5122202;28;20449;-41
2021/04/02 05:23:38;;;;;;;10.90;5.13;;;12.00;86.60;;;;;;5121864;28;20201;-41
2021/04/02 05:26:11;;;;;;;8.90;5.10;;;11.90;89.80;;;;;;5121887;28;20528;-41
2021/04/02 05:28:41;;;;;;;7.50;5.03;;;11.90;88.50;;;;;;5121824;28;20433;-41
2021/04/02 05:31:12;;;;;;;10.87;5.10;;;11.90;89.70;;;;;;5122799;28;20453;-41
2021/04/02 05:33:43;;;;;;;9.70;5.10;;;11.90;88.30;;;;;;5121862;28;20505;-41
2021/04/02 05:36:13;;;;;;;9.70;5.47;;;11.70;90.00;;;;;;5122853;28;20486;-41
2021/04/02 05:38:43;;;;;;;12.70;4.70;;;11.80;90.00;;;;;;5126089;28;20247;-40
2021/04/02 05:41:19;;;;;;;12.50;6.10;;;11.70;90.60;;;;;;5125400;28;20463;-41
2021/04/02 05:44:11;;;;;;;6.30;4.80;;;11.70;90.00;;;;;;5125632;28;20490;-42
2021/04/02 05:46:45;;;;;;;12.87;5.57;;;11.70;89.90;;;;;;5125507;28;20447;-41
2021/04/02 05:49:19;;;;;;;10.27;5.77;;;11.60;89.30;;;;;;5126361;28;20459;-41
2021/04/02 05:51:50;;;;;;;10.43;5.37;;;11.50;88.80;;;;;;5126010;28;20455;-41
2021/04/02 05:54:29;;;;;;;8.38;5.45;;;11.40;90.20;;;;;;5125491;28;20448;-41
2021/04/02 05:56:59;;;;;;;8.88;5.28;;;11.30;90.70;;;;;;5124164;28;20210;-40
2021/04/02 05:59:30;;;;;;;7.60;5.90;;;11.30;91.60;;;;;;5125481;28;20278;-40
2021/04/02 06:02:00;;;;;;;11.43;5.90;;;11.10;91.40;;;;;;5125544;28;20448;-41
2021/04/02 06:04:32;;;;;;;14.63;5.65;;;11.00;92.00;;;;;;5125743;28;20483;-41
2021/04/02 06:07:02;;;;;;;10.93;5.82;;;11.00;92.00;;;;;;5125384;28;20212;-41
2021/04/02 06:09:33;;;;;;;8.30;5.65;;;11.00;90.90;;;;;;5125343;28;20202;-42
2021/04/02 06:12:03;;;;;;;9.98;6.07;;;10.90;91.50;;;;;;5124997;28;20205;-41
2021/04/02 06:14:33;;;;;;;10.88;6.13;;;10.80;91.50;;;;;;5124980;28;20213;-41
2021/04/02 06:17:03;;;;;;;7.85;5.45;;;10.80;93.30;;;;;;5123989;28;20202;-41
2021/04/02 06:19:34;;;;;;;12.17;5.50;;;10.70;93.80;;;;;;5126261;28;20563;-40
2021/04/02 06:22:06;;;;;;;10.35;5.63;;;10.60;92.60;;;;;;5124914;28;20959;-41
2021/04/02 06:24:39;;;;;;;11.52;5.85;;;10.60;92.30;;;;;;5124717;28;20684;-41
2021/04/02 06:27:10;;;;;;;9.88;6.32;;;10.50;91.50;;;;;;5115771;28;20273;-40
2021/04/02 06:29:42;;;;;;;13.35;6.95;;;10.40;92.20;;;;;;5124718;28;20205;-40
2021/04/02 06:32:15;;;;;;;16.63;5.93;;;10.30;93.50;;;;;;5124808;28;20217;-41
2021/04/02 06:34:50;;;;;;;10.90;7.03;;;10.20;94.00;;;;;;5125101;28;20198;-42
2021/04/02 06:37:21;;;;;;;15.77;6.80;;;10.20;94.60;;;;;;5124601;28;20261;-40
2021/04/02 06:39:54;;;;;;;8.85;5.75;;;10.20;95.30;;;;;;5124984;28;20205;-42
2021/04/02 06:42:31;;;;;;;13.15;6.45;;;10.10;94.40;;;;;;5124637;28;20209;-42
2021/04/02 06:45:02;;;;;;;9.05;6.70;;;10.00;94.30;;;;;;5124368;28;20651;-43
2021/04/02 06:47:36;;;;;;;10.30;5.18;;;9.90;95.10;;;;;;5124209;28;20288;-41
2021/04/02 06:50:17;;;;;;;9.52;5.57;;;9.90;95.00;;;;;;5125586;28;20196;-39
2021/04/02 06:52:52;;;;;;;9.93;6.25;;;9.70;96.20;;;;;;5124351;28;20249;-41
2021/04/02 06:55:24;;;;;;;12.10;5.90;;;9.70;95.70;;;;;;5123551;28;20233;-41
2021/04/02 06:57:55;;;;;;;8.63;5.88;;;9.60;96.90;;;;;;5124047;28;20222;-41
2021/04/02 07:00:26;;;;;;;10.02;7.05;;;9.60;95.90;;;;;;5124078;28;20268;-41
2021/04/02 07:02:57;;;;;;;7.70;5.53;;;9.40;98.10;;;;;;5124658;28;20196;-41
2021/04/02 07:05:28;;;;;;;9.60;6.50;;;9.50;98.60;;;;;;5124373;28;20344;-40
2021/04/02 07:08:03;;;;;;;8.85;5.45;;;9.30;99.50;;;;;;5124347;28;20229;-42
2021/04/02 07:10:34;;;;;;;10.23;5.95;;;9.30;99.60;;;;;;5124667;28;20285;-39
2021/04/02 07:13:07;;;;;;;13.60;5.80;;;9.30;98.30;;;;;;5123992;28;20522;-41
2021/04/02 07:15:38;;;;;;;6.68;5.07;;;9.20;99.90;;;;;;5124128;28;20343;-41
2021/04/02 07:18:10;;;;;;;13.27;6.10;;;9.20;99.20;;;;;;5124251;28;20287;-41
2021/04/02 07:20:41;;;;;;;8.60;6.07;;;9.10;99.90;;;;;;5124657;28;20192;-41
2021/04/02 07:23:12;;;;;;;10.70;6.85;;;9.10;99.90;;;;;;5116382;28;20272;-41
2021/04/02 07:25:42;;;;;;;7.75;5.80;;;9.00;99.90;;;;;;5122170;28;20257;-40
2021/04/02 07:28:12;;;;;;;9.30;6.07;;;9.00;99.90;;;;;;5122960;28;20561;-42
2021/04/02 07:30:44;;;;;;;10.30;5.82;;;9.00;99.90;;;;;;5123415;28;20204;-40
2021/04/02 07:33:15;;;;;;;10.27;5.65;;;8.90;99.90;;;;;;5124260;28;20541;-41
2021/04/02 07:35:56;;;;;;;8.73;5.22;;;8.80;99.90;;;;;;5124420;28;20208;-41
2021/04/02 07:38:30;;;;;;;12.20;5.70;;;8.80;99.90;;;;;;5123918;28;20233;-41
2021/04/02 07:41:07;;;;;;;13.52;5.57;;;8.80;99.90;;;;;;5123438;28;20272;-41
2021/04/02 07:43:49;;;;;;;7.55;5.32;;;8.70;99.90;;;;;;5123396;28;20585;-40
2021/04/02 07:46:20;;;;;;;8.82;6.13;;;8.70;99.90;;;;;;5122784;28;20264;-40
2021/04/02 07:48:52;;;;;;;14.73;5.15;;;8.70;99.90;;;;;;5123732;28;20200;-40
2021/04/02 07:51:23;;;;;;;11.77;5.88;;;8.60;99.90;;;;;;5124078;28;20321;-40
2021/04/02 07:54:02;;;;;;;9.90;5.40;;;8.60;99.90;;;;;;5123768;28;20233;-43
2021/04/02 07:56:36;;;;;;;11.95;6.65;;;8.60;99.90;;;;;;5122569;28;20264;-40
2021/04/02 07:59:07;;;;;;;11.43;6.00;;;8.60;99.90;;;;;;5123267;28;20253;-40
2021/04/02 08:01:38;;;;;;;12.43;6.28;;;8.60;99.90;;;;;;5116483;28;20207;-41
2021/04/02 08:04:08;;;;;;;14.27;6.22;;;8.50;99.90;;;;;;5123746;28;20221;-40
2021/04/02 08:06:39;;;;;;;8.90;5.90;;;8.50;99.90;;;;;;5122602;28;20204;-40
2021/04/02 08:09:10;;;;;;;12.30;6.82;;;8.50;99.90;;;;;;5123449;28;20748;-41
2021/04/02 08:11:46;;;;;;;13.75;6.72;;;8.40;99.90;;;;;;5122381;28;20245;-40
2021/04/02 08:14:31;;;;;;;11.10;6.18;;;8.40;99.90;;;;;;5123185;28;20564;-40
2021/04/02 08:17:01;;;;;;;9.00;6.80;;;8.40;99.90;;;;;;5118381;28;20211;-41
2021/04/02 08:19:32;;;;;;;9.45;5.80;;;8.40;99.90;;;;;;5123810;28;20199;-40
2021/04/02 08:22:06;;;;;;;10.63;6.90;;;8.30;99.90;;;;;;5122960;28;20199;-40
2021/04/02 08:24:37;;;;;;;12.85;5.55;;;8.20;99.90;;;;;;5122698;28;20220;-39
2021/04/02 08:27:08;;;;;;;10.32;6.00;;;8.10;99.90;;;;;;5121396;28;20204;-38
2021/04/02 08:29:40;;;;;;;12.65;6.10;;;8.00;99.90;;;;;;5123259;28;20196;-41
2021/04/02 08:32:11;;;;;;;9.00;6.22;;;7.90;99.90;;;;;;5122885;28;20245;-41
2021/04/02 08:34:43;;;;;;;10.90;6.65;;;8.00;99.90;;;;;;5122743;28;20196;-40
2021/04/02 08:37:17;;;;;;;9.10;5.57;;;7.90;99.90;;;;;;5122730;28;20191;-41
2021/04/02 08:39:48;;;;;;;11.00;6.07;;;7.80;99.90;;;;;;5123172;28;20198;-40
2021/04/02 08:42:20;;;;;;;8.07;6.22;;;7.90;99.90;;;;;;5122224;28;20253;-38
2021/04/02 08:45:11;;;;;;;7.25;5.07;;;7.90;99.90;;;;;;5121350;28;20254;-40
2021/04/02 08:47:41;;;;;;;12.13;6.15;;;7.90;99.90;;;;;;5108860;28;20199;-40
2021/04/02 08:50:11;;;;;;;7.70;6.40;;;7.80;99.90;;;;;;5123128;28;20192;-40
2021/04/02 08:52:42;;;;;;;10.02;6.30;;;7.80;99.90;;;;;;5122959;28;20204;-40
2021/04/02 08:55:13;;;;;;;9.90;6.05;;;7.80;99.90;;;;;;5122935;28;20191;-39
2021/04/02 08:57:46;;;;;;;10.45;7.15;;;7.60;99.90;;;;;;5122434;28;20635;-39
2021/04/02 09:00:17;;;;;;;8.65;6.45;;;7.60;99.90;;;;;;5123267;28;20208;-40
2021/04/02 09:02:47;;;;;;;9.32;6.28;;;7.60;99.90;;;;;;5122512;28;20288;-39
2021/04/02 09:05:18;;;;;;;8.20;6.40;;;7.50;99.90;;;;;;5122610;28;20219;-40
2021/04/02 09:07:49;;;;;;;7.82;6.28;;;7.50;99.90;;;;;;5122815;28;20226;-40
2021/04/02 09:10:20;;;;;;;8.73;6.35;;;7.40;99.90;;;;;;5125111;28;20196;-40
2021/04/02 09:12:50;;;;;;;8.48;5.70;;;7.40;99.90;;;;;;5125436;28;20243;-40
2021/04/02 09:15:22;;;;;;;7.03;5.90;;;7.40;99.90;;;;;;5126986;28;20199;-40
2021/04/02 09:17:52;;;;;;;10.40;6.45;;;7.40;99.90;;;;;;5125609;28;20200;-40
2021/04/02 09:20:23;;;;;;;10.32;6.82;;;7.40;99.90;;;;;;5126808;28;20219;-40
2021/04/02 09:22:55;;;;;;;9.35;5.78;;;7.30;99.90;;;;;;5126786;28;20203;-39
2021/04/02 09:25:25;;;;;;;9.27;5.88;;;7.30;99.90;;;;;;5127778;28;20224;-40
2021/04/02 09:28:05;;;;;;;8.55;5.80;;;7.20;99.90;;;;;;5125595;28;20252;-39
2021/04/02 09:30:36;;;;;;;9.82;5.00;;;7.20;99.90;;;;;;5126817;28;20195;-38
2021/04/02 09:33:07;;;;;;;7.68;5.10;;;7.20;99.90;;;;;;5126306;28;20265;-41
2021/04/02 09:35:38;;;;;;;8.15;4.93;;;7.20;99.90;;;;;;5126326;28;20249;-42
2021/04/02 09:38:09;;;;;;;9.43;5.90;;;7.20;99.90;;;;;;5126153;28;20220;-40
2021/04/02 09:40:43;;;;;;;8.60;5.20;;;7.20;99.90;;;;;;5126805;28;20196;-40
2021/04/02 09:43:13;;;;;;;9.35;5.22;;;7.20;99.90;;;;;;5125763;28;20223;-41
2021/04/02 09:45:51;;;;;;;8.25;5.80;;;7.20;99.90;;;;;;5126197;28;20296;-40
2021/04/02 09:48:22;;;;;;;9.57;5.10;;;7.10;99.90;;;;;;5109761;28;20200;-40
2021/04/02 09:50:53;;;;;;;8.35;6.40;;;7.00;99.90;;;;;;5126303;28;20210;-39
2021/04/02 09:53:25;;;;;;;6.93;5.50;;;6.90;99.90;;;;;;5125818;28;20547;-38
2021/04/02 09:55:56;;;;;;;6.55;5.53;;;7.00;99.90;;;;;;5126473;28;20693;-40
2021/04/02 09:58:26;;;;;;;9.02;5.60;;;7.00;99.90;;;;;;5125450;28;20204;-40
2021/04/02 10:00:57;;;;;;;8.00;5.05;;;7.00;99.90;;;;;;5126621;28;20268;-38
2021/04/02 10:03:28;;;;;;;9.70;5.88;;;6.80;99.90;;;;;;5127128;27;20245;-39
2021/04/02 10:05:58;;;;;;;11.02;6.07;;;6.70;99.90;;;;;;5126124;28;20287;-38
2021/04/02 10:08:29;;;;;;;7.63;5.30;;;6.70;99.90;;;;;;5125449;28;20241;-40
2021/04/02 10:11:00;;;;;;;9.40;5.40;;;6.70;99.90;;;;;;5126773;27;20623;-40
2021/04/02 10:13:30;;;;;;;6.68;5.45;;;6.60;99.90;;;;;;5121543;28;20200;-40
2021/04/02 10:16:01;;;;;;;12.60;6.53;;;6.60;99.90;;;;;;5126290;28;20199;-40
2021/04/02 10:18:31;;;;;;;9.90;5.88;;;6.60;99.90;;;;;;5126039;28;20253;-39
2021/04/02 10:21:03;;;;;;;8.00;6.68;;;6.50;99.90;;;;;;5125892;28;20207;-40
2021/04/02 10:23:34;;;;;;;10.65;6.25;;;6.60;99.90;;;;;;5125242;28;20188;-40
2021/04/02 10:26:04;;;;;;;9.13;6.10;;;6.60;99.90;;;;;;5126281;28;20215;-39
2021/04/02 10:28:35;;;;;;;8.27;6.15;;;6.60;99.90;;;;;;5125203;28;20258;-40
2021/04/02 10:31:05;;;;;;;7.35;6.30;;;6.50;99.90;;;;;;5124953;28;20208;-40
2021/04/02 10:33:35;;;;;;;10.75;6.80;;;6.50;99.90;;;;;;5124252;28;20639;-39
2021/04/02 10:36:06;;;;;;;9.13;5.70;;;6.50;99.90;;;;;;5114387;28;20265;-38
2021/04/02 10:38:37;;;;;;;12.15;6.38;;;6.40;99.90;;;;;;5125428;28;20222;-40
2021/04/02 10:41:08;;;;;;;7.57;6.50;;;6.30;99.90;;;;;;5125301;28;20216;-38
2021/04/02 10:43:38;;;;;;;10.93;6.93;;;6.30;99.90;;;;;;5124640;28;20216;-39
2021/04/02 10:46:09;;;;;;;10.75;6.03;;;6.30;99.90;;;;;;5125125;28;20246;-39
2021/04/02 10:48:40;;;;;;;9.10;6.22;;;6.30;99.90;;;;;;5123635;28;20263;-40
2021/04/02 10:51:11;;;;;;;8.30;6.30;;;6.30;99.90;;;;;;5124387;28;20252;-40
2021/04/02 10:53:42;;;;;;;11.35;6.78;;;6.20;99.90;;;;;;5125386;28;20495;-38
2021/04/02 10:56:12;;;;;;;9.13;6.63;;;6.20;99.90;;;;;;5125125;28;20203;-41
2021/04/02 10:58:42;;;;;;;9.70;5.97;;;6.20;99.90;;;;;;5124743;28;20204;-41
2021/04/02 11:01:15;;;;;;;8.40;7.30;;;6.10;99.90;;;;;;5124591;28;20278;-40
2021/04/02 11:03:45;;;;;;;9.48;6.53;;;6.10;99.90;;;;;;5125205;28;20215;-41
2021/04/02 11:06:16;;;;;;;11.57;6.80;;;6.10;99.90;;;;;;5124695;28;20231;-39
2021/04/02 11:08:47;;;;;;;13.98;6.68;;;6.10;99.90;;;;;;5125239;28;20208;-39
2021/04/02 11:11:17;;;;;;;13.00;7.78;;;6.00;99.90;;;;;;5123806;28;20229;-39
2021/04/02 11:13:47;;;;;;;10.68;5.78;;;5.90;99.90;;;;;;5124987;28;20640;-39
2021/04/02 11:16:17;;;;;;;8.88;6.25;;;5.90;99.90;;;;;;5124391;28;20210;-42
2021/04/02 11:18:46;;;;;;;10.57;6.75;;;5.90;99.90;;;;;;5124478;28;20256;-40
2021/04/02 11:21:17;;;;;;;8.80;6.90;;;5.90;99.90;;;;;;5123694;28;20298;-39
2021/04/02 11:23:48;;;;;;;14.43;8.30;;;5.90;99.90;;;;;;5124740;28;20192;-40
2021/04/02 11:26:18;;;;;;;8.02;6.45;;;5.90;99.90;;;;;;5123656;28;20228;-37
2021/04/02 11:28:48;;;;;;;9.73;6.95;;;5.80;99.90;;;;;;5124351;28;20261;-38
2021/04/02 11:31:18;;;;;;;7.60;6.35;;;5.80;99.90;;;;;;5124044;28;20196;-39
2021/04/02 11:33:49;;;;;;;8.82;7.38;;;5.70;99.90;;;;;;5122461;28;20528;-40
2021/04/02 11:36:19;;;;;;;7.97;6.25;;;5.60;99.90;;;;;;5121545;28;20287;-40
2021/04/02 11:38:50;;;;;;;11.43;6.75;;;5.60;99.90;;;;;;5124274;28;20245;-39
2021/04/02 11:41:20;;;;;;;7.43;6.65;;;5.50;99.90;;;;;;5123590;28;20272;-40
2021/04/02 11:43:50;;;;;;;9.50;6.53;;;5.50;99.90;;;;;;5123065;28;20311;-39
2021/04/02 11:46:21;;;;;;;11.00;7.60;;;5.60;99.90;;;;;;5123256;28;20281;-39
2021/04/02 11:48:51;;;;;;;10.82;7.78;;;5.50;99.90;;;;;;5123157;28;20203;-41
2021/04/02 11:51:21;;;;;;;8.15;6.47;;;5.50;99.90;;;;;;5123308;28;20204;-42
2021/04/02 11:53:52;;;;;;;11.85;6.25;;;5.40;99.90;;;;;;5123644;28;20203;-41
2021/04/02 11:56:23;;;;;;;11.45;7.07;;;5.40;99.90;;;;;;5122769;28;20215;-39
2021/04/02 11:58:53;;;;;;;10.80;7.03;;;5.40;99.90;;;;;;5124157;28;20196;-40
2021/04/02 12:01:23;;;;;;;7.70;6.40;;;5.40;99.90;;;;;;5123257;28;20307;-41
2021/04/02 12:03:53;;;;;;;9.55;6.32;;;5.40;99.90;;;;;;5123224;28;20204;-39
2021/04/02 12:06:24;;;;;;;12.02;7.15;;;5.40;99.90;;;;;;5124140;28;20207;-39
2021/04/02 12:08:59;;;;;;;10.88;7.10;;;5.30;99.90;;;;;;5120808;28;20263;-41
2021/04/02 12:11:29;;;;;;;9.60;6.63;;;5.20;99.90;;;;;;5111146;28;20324;-38
2021/04/02 12:13:59;;;;;;;9.73;7.03;;;5.20;99.90;;;;;;5115820;28;20658;-39
2021/04/02 12:16:28;;;;;;;9.23;6.57;;;5.20;99.90;;;;;;5123019;28;20200;-39
2021/04/02 12:18:58;;;;;;;9.02;6.75;;;5.20;99.90;;;;;;5123483;28;20261;-42
2021/04/02 12:21:28;;;;;;;11.82;7.72;;;5.10;99.90;;;;;;5122663;28;20192;-40
2021/04/02 12:24:00;;;;;;;11.93;7.53;;;5.10;99.90;;;;;;5122086;28;20509;-42
2021/04/02 12:26:31;;;;;;;9.57;7.00;;;5.10;99.90;;;;;;5122612;28;20235;-41
2021/04/02 12:29:01;;;;;;;13.45;7.40;;;5.00;99.90;;;;;;5123073;28;20204;-40
2021/04/02 12:31:31;;;;;;;9.77;6.85;;;5.00;99.90;;;;;;5122626;28;20366;-39
2021/04/02 12:34:02;;;;;;;12.30;8.43;;;5.00;99.90;;;;;;5123601;28;20192;-40
2021/04/02 12:36:32;;;;;;;7.70;6.57;;;5.00;99.90;;;;;;5122728;28;20214;-41
2021/04/02 12:39:03;;;;;;;11.57;7.00;;;5.00;99.90;;;;;;5122278;28;20211;-40
2021/04/02 12:41:33;;;;;;;10.50;7.10;;;5.00;99.90;;;;;;5120350;28;20199;-39
2021/04/02 12:44:04;;;;;;;8.88;6.72;;;4.90;99.90;;;;;;5123014;28;20284;-40
2021/04/02 12:46:35;;;;;;;9.00;6.80;;;4.90;99.90;;;;;;5122213;28;20220;-42
2021/04/02 12:49:05;;;;;;;10.75;6.80;;;4.80;99.90;;;;;;5122333;28;20196;-41
2021/04/02 12:51:35;;;;;;;8.70;6.80;;;4.80;99.90;;;;;;5122327;28;20627;-41
2021/04/02 12:54:06;;;;;;;12.13;8.38;;;4.70;99.90;;;;;;5123178;28;20211;-39
2021/04/02 12:56:37;;;;;;;7.93;6.70;;;4.70;99.90;;;;;;5121605;28;20264;-39
2021/04/02 12:59:08;;;;;;;11.13;7.18;;;4.60;99.90;;;;;;5122112;28;20204;-40
2021/04/02 13:01:38;;;;;;;9.02;7.07;;;4.60;99.90;;;;;;5122940;28;20192;-39
2021/04/02 13:04:08;;;;;;;12.55;7.32;;;4.60;99.90;;;;;;5123074;28;20260;-40
2021/04/02 13:06:38;;;;;;;12.98;6.93;;;4.50;99.90;;;;;;5122462;28;20235;-39
2021/04/02 13:09:09;;;;;;;11.30;7.65;;;4.60;99.90;;;;;;5122227;28;20278;-40
2021/04/02 13:11:39;;;;;;;10.98;7.45;;;4.60;99.90;;;;;;5122136;28;20199;-41
2021/04/02 13:14:10;;;;;;;9.80;6.80;;;4.70;99.90;;;;;;5122527;28;20199;-41